Time;durP1;ratioP1;P1;durP2;ratioP2;P2;SDS_P1;SDS_P2;PMS_P1;PMS_P2;Temp;Humidity;BMP_temperature;BMP_pressure;BME280_temperature;BME280_humidity;BME280_pressure;Samples;Min_cycle;Max_cycle;Signal;HPM_P1;HPM_P2
2022/05/21 00:01:58;;;;;;;3.70;3.40;;;;;;;;;;5061787;28;24421;-47
2022/05/21 00:04:23;;;;;;;4.07;3.67;;;;;;;;;;5066212;28;24487;-45
2022/05/21 00:06:48;;;;;;;3.50;3.20;;;;;;;;;;5053713;28;24973;-46
2022/05/21 00:09:14;;;;;;;4.80;3.80;;;;;;;;;;5070935;28;24418;-45
2022/05/21 00:11:39;;;;;;;4.20;3.47;;;;;;;;;;5075719;28;24475;-45
2022/05/21 00:14:05;;;;;;;3.97;3.63;;;;;;;;;;5068191;28;24410;-46
2022/05/21 00:16:30;;;;;;;4.00;3.60;;;;;;;;;;5060956;28;24429;-45
2022/05/21 00:18:55;;;;;;;4.03;3.63;;;;;;;;;;5067784;28;24419;-45
2022/05/21 00:21:20;;;;;;;3.43;3.13;;;;;;;;;;5061031;28;24458;-45
2022/05/21 00:23:46;;;;;;;4.53;3.40;;;;;;;;;;5077617;28;24488;-46
2022/05/21 00:26:12;;;;;;;3.60;3.30;;;;;;;;;;5065202;28;25056;-45
2022/05/21 00:28:38;;;;;;;6.05;3.70;;;;;;;;;;5063232;28;24534;-46
2022/05/21 00:31:04;;;;;;;4.65;3.78;;;;;;;;;;5062083;28;24496;-45
2022/05/21 00:33:30;;;;;;;4.13;3.83;;;;;;;;;;5059666;28;24480;-45
2022/05/21 00:35:55;;;;;;;5.80;4.10;;;;;;;;;;5071371;28;24519;-45
2022/05/21 00:38:20;;;;;;;4.00;3.70;;;;;;;;;;5068484;28;24654;-45
2022/05/21 00:40:46;;;;;;;5.10;4.43;;;;;;;;;;5050293;28;24418;-45
2022/05/21 00:43:30;;;;;;;3.55;3.35;;;;;;;;;;5076768;28;24438;-46
2022/05/21 00:45:55;;;;;;;5.53;3.70;;;;;;;;;;5059091;28;24432;-45
2022/05/21 00:48:20;;;;;;;3.70;3.40;;;;;;;;;;5059437;28;24478;-46
2022/05/21 00:50:46;;;;;;;4.40;3.22;;;;;;;;;;5054066;28;24526;-45
2022/05/21 00:53:11;;;;;;;3.78;3.47;;;;;;;;;;5065604;28;24778;-45
2022/05/21 00:55:36;;;;;;;6.87;3.60;;;;;;;;;;5066816;28;24914;-45
2022/05/21 01:00:48;;;;;;;4.65;3.20;;;;;;;;;;5071313;28;24762;-45
2022/05/21 01:03:15;;;;;;;3.27;2.97;;;;;;;;;;5065358;28;24431;-45
2022/05/21 01:05:42;;;;;;;3.13;2.92;;;;;;;;;;5060950;28;24427;-46
2022/05/21 01:08:08;;;;;;;2.70;2.50;;;;;;;;;;5056415;28;24492;-45
2022/05/21 01:10:36;;;;;;;3.00;2.80;;;;;;;;;;5085542;28;24414;-45
2022/05/21 01:13:02;;;;;;;2.70;2.50;;;;;;;;;;5064649;28;24480;-46
2022/05/21 01:15:32;;;;;;;2.53;2.33;;;;;;;;;;5062624;28;24522;-45
2022/05/21 01:17:57;;;;;;;2.70;2.50;;;;;;;;;;5074195;28;24411;-46
2022/05/21 01:20:33;;;;;;;2.50;2.30;;;;;;;;;;5066132;28;24433;-46
2022/05/21 01:22:58;;;;;;;2.40;2.30;;;;;;;;;;5067273;28;24430;-46
2022/05/21 01:25:25;;;;;;;4.20;2.58;;;;;;;;;;5070695;28;24407;-45
2022/05/21 01:27:51;;;;;;;2.90;2.70;;;;;;;;;;5066996;28;24876;-45
2022/05/21 01:30:23;;;;;;;3.33;2.60;;;;;;;;;;5054953;28;24457;-45
2022/05/21 01:32:49;;;;;;;3.45;2.40;;;;;;;;;;5082550;28;24426;-46
2022/05/21 01:35:15;;;;;;;3.00;2.80;;;;;;;;;;5067704;28;24439;-45
2022/05/21 01:37:41;;;;;;;3.33;2.60;;;;;;;;;;5074247;28;24430;-45
2022/05/21 01:40:07;;;;;;;2.80;2.60;;;;;;;;;;5066806;28;24475;-46
2022/05/21 01:42:33;;;;;;;2.80;2.50;;;;;;;;;;5065069;28;24457;-45
2022/05/21 01:44:58;;;;;;;2.83;2.63;;;;;;;;;;5049606;28;24447;-45
2022/05/21 01:47:23;;;;;;;2.43;2.33;;;;;;;;;;5071191;28;24978;-45
2022/05/21 01:49:49;;;;;;;2.80;2.30;;;;;;;;;;5063930;28;24960;-44
2022/05/21 01:52:14;;;;;;;6.80;2.80;;;;;;;;;;5060114;28;24431;-45
2022/05/21 01:54:39;;;;;;;3.30;2.40;;;;;;;;;;5066981;28;24427;-46
2022/05/21 01:57:05;;;;;;;2.90;2.40;;;;;;;;;;5070548;28;24466;-44
2022/05/21 01:59:30;;;;;;;2.30;2.10;;;;;;;;;;5065458;28;24422;-45
2022/05/21 02:01:55;;;;;;;3.43;2.40;;;;;;;;;;5055192;28;24558;-45
2022/05/21 02:04:21;;;;;;;3.83;2.30;;;;;;;;;;5068230;28;24419;-45
2022/05/21 02:06:46;;;;;;;3.00;2.20;;;;;;;;;;5057924;28;25222;-45
2022/05/21 02:09:11;;;;;;;2.03;1.90;;;;;;;;;;5073902;28;24514;-47
2022/05/21 02:11:37;;;;;;;4.00;2.50;;;;;;;;;;5064732;28;24449;-46
2022/05/21 02:14:03;;;;;;;4.30;2.13;;;;;;;;;;5081057;28;24999;-46
2022/05/21 02:16:28;;;;;;;1.83;1.73;;;;;;;;;;5073656;28;24832;-46
2022/05/21 02:18:53;;;;;;;1.80;1.70;;;;;;;;;;5069550;28;25292;-46
2022/05/21 02:21:18;;;;;;;2.50;1.60;;;;;;;;;;5073297;28;24423;-45
2022/05/21 02:23:44;;;;;;;1.70;1.60;;;;;;;;;;5067444;28;24421;-46
2022/05/21 02:26:09;;;;;;;4.80;1.63;;;;;;;;;;5055603;28;24422;-46
2022/05/21 02:28:34;;;;;;;3.72;1.80;;;;;;;;;;5056958;28;24437;-46
2022/05/21 02:30:59;;;;;;;1.70;1.60;;;;;;;;;;5070778;28;24482;-46
2022/05/21 02:33:24;;;;;;;1.70;1.60;;;;;;;;;;5072187;28;24822;-46
2022/05/21 02:35:49;;;;;;;1.45;1.20;;;;;;;;;;5060279;28;24521;-46
2022/05/21 02:40:58;;;;;;;1.60;1.23;;;;;;;;;;5068679;28;24422;-46
2022/05/21 02:43:23;;;;;;;1.40;1.30;;;;;;;;;;5067918;28;24781;-45
2022/05/21 02:45:49;;;;;;;1.52;1.42;;;;;;;;;;5063743;28;25351;-45
2022/05/21 02:48:14;;;;;;;1.60;1.00;;;;;;;;;;5054244;28;24431;-45
2022/05/21 02:50:39;;;;;;;1.40;1.20;;;;;;;;;;5062664;28;24434;-45
2022/05/21 02:53:06;;;;;;;1.30;1.20;;;;;;;;;;5067309;28;24488;-45
2022/05/21 02:55:31;;;;;;;1.20;1.10;;;;;;;;;;5065513;28;24442;-51
2022/05/21 02:57:57;;;;;;;2.00;1.20;;;;;;;;;;5066331;28;24431;-45
2022/05/21 03:00:26;;;;;;;1.27;1.17;;;;;;;;;;5060700;28;24462;-46
2022/05/21 03:02:52;;;;;;;1.20;1.10;;;;;;;;;;5067142;28;24429;-45
2022/05/21 03:05:17;;;;;;;1.37;1.27;;;;;;;;;;5063921;28;24521;-46
2022/05/21 03:07:44;;;;;;;3.40;1.60;;;;;;;;;;5070660;28;24426;-46
2022/05/21 03:10:22;;;;;;;2.55;1.60;;;;;;;;;;5053937;28;24442;-46
2022/05/21 03:12:51;;;;;;;1.80;1.50;;;;;;;;;;5064167;28;24421;-46
2022/05/21 03:15:17;;;;;;;1.70;1.60;;;;;;;;;;5059171;28;24437;-46
2022/05/21 03:17:43;;;;;;;1.70;1.60;;;;;;;;;;5063029;28;24420;-46
2022/05/21 03:20:08;;;;;;;1.57;1.47;;;;;;;;;;5073615;28;25029;-46
2022/05/21 03:22:33;;;;;;;1.60;1.50;;;;;;;;;;5066941;28;24441;-45
2022/05/21 03:24:58;;;;;;;1.80;1.58;;;;;;;;;;5063901;28;24422;-46
2022/05/21 03:27:24;;;;;;;1.90;1.60;;;;;;;;;;5060828;28;24454;-45
2022/05/21 03:29:49;;;;;;;3.03;1.80;;;;;;;;;;5060169;28;24561;-45
2022/05/21 03:32:15;;;;;;;1.90;1.70;;;;;;;;;;5060567;28;24948;-46
2022/05/21 03:34:40;;;;;;;2.27;1.90;;;;;;;;;;5063552;28;24968;-45
2022/05/21 03:37:05;;;;;;;2.00;1.80;;;;;;;;;;5062307;28;24509;-46
2022/05/21 03:39:31;;;;;;;2.47;1.70;;;;;;;;;;5063184;28;24781;-46
2022/05/21 03:41:56;;;;;;;2.30;2.20;;;;;;;;;;5070406;28;24454;-45
2022/05/21 03:44:22;;;;;;;3.67;1.90;;;;;;;;;;5060742;28;24522;-46
2022/05/21 03:46:47;;;;;;;2.20;2.00;;;;;;;;;;5060482;28;24525;-46
2022/05/21 03:49:12;;;;;;;3.72;2.10;;;;;;;;;;5064386;28;24468;-46
2022/05/21 03:51:37;;;;;;;2.73;2.10;;;;;;;;;;5070002;28;24496;-46
2022/05/21 03:54:03;;;;;;;2.70;2.20;;;;;;;;;;5061446;28;24453;-46
2022/05/21 03:56:28;;;;;;;2.92;2.50;;;;;;;;;;5062558;28;24465;-46
2022/05/21 03:58:53;;;;;;;2.90;2.47;;;;;;;;;;5071955;28;24480;-45
2022/05/21 04:01:18;;;;;;;2.40;2.20;;;;;;;;;;5063178;28;24441;-48
2022/05/21 04:03:43;;;;;;;2.50;2.30;;;;;;;;;;5065682;28;24765;-47
2022/05/21 04:06:11;;;;;;;3.00;2.63;;;;;;;;;;5063320;28;24434;-45
2022/05/21 04:08:36;;;;;;;2.40;2.20;;;;;;;;;;5064675;28;24425;-46
2022/05/21 04:11:02;;;;;;;2.60;2.13;;;;;;;;;;5060508;28;24418;-45
2022/05/21 04:13:27;;;;;;;2.90;2.60;;;;;;;;;;5067206;28;24776;-45
2022/05/21 04:15:53;;;;;;;2.60;2.40;;;;;;;;;;5061011;28;24782;-46
2022/05/21 04:18:18;;;;;;;2.70;2.50;;;;;;;;;;5060046;28;24452;-45
2022/05/21 04:20:43;;;;;;;2.45;2.20;;;;;;;;;;5056648;28;24447;-46
2022/05/21 04:23:09;;;;;;;2.70;2.50;;;;;;;;;;5057170;28;24415;-46
2022/05/21 04:25:34;;;;;;;2.95;2.22;;;;;;;;;;5065684;28;24484;-46
2022/05/21 04:27:59;;;;;;;3.63;2.90;;;;;;;;;;5060709;28;24472;-46
2022/05/21 04:30:26;;;;;;;2.70;2.50;;;;;;;;;;5060323;28;24469;-46
2022/05/21 04:32:52;;;;;;;3.15;2.50;;;;;;;;;;5063407;28;24419;-46
2022/05/21 04:35:18;;;;;;;2.70;2.50;;;;;;;;;;5061338;28;24441;-46
2022/05/21 04:37:43;;;;;;;3.30;3.00;;;;;;;;;;5067216;28;24481;-46
2022/05/21 04:40:11;;;;;;;3.40;3.10;;;;;;;;;;5058145;28;24425;-46
2022/05/21 04:42:36;;;;;;;3.40;3.00;;;;;;;;;;5058851;28;24498;-46
2022/05/21 04:45:02;;;;;;;3.10;2.90;;;;;;;;;;5074742;28;24514;-46
2022/05/21 04:47:28;;;;;;;3.58;3.28;;;;;;;;;;5066505;28;24459;-46
2022/05/21 04:49:53;;;;;;;2.90;2.70;;;;;;;;;;5071463;28;24499;-46
2022/05/21 04:52:18;;;;;;;3.50;3.20;;;;;;;;;;5076646;28;25340;-45
2022/05/21 04:54:43;;;;;;;3.33;3.10;;;;;;;;;;5071013;28;24422;-46
2022/05/21 04:57:08;;;;;;;6.03;3.17;;;;;;;;;;5066498;28;24941;-46
2022/05/21 04:59:34;;;;;;;3.43;3.10;;;;;;;;;;5072866;28;24560;-47
2022/05/21 05:01:59;;;;;;;3.80;3.40;;;;;;;;;;5062474;28;24427;-47
2022/05/21 05:04:24;;;;;;;3.60;3.30;;;;;;;;;;5069485;28;24446;-47
2022/05/21 05:06:49;;;;;;;3.20;2.90;;;;;;;;;;5065018;28;24984;-46
2022/05/21 05:09:17;;;;;;;2.83;2.60;;;;;;;;;;5065789;28;24426;-47
2022/05/21 05:11:42;;;;;;;3.20;2.90;;;;;;;;;;5070209;28;24419;-46
2022/05/21 05:14:07;;;;;;;4.23;3.37;;;;;;;;;;5070341;28;24421;-46
2022/05/21 05:16:32;;;;;;;2.73;2.60;;;;;;;;;;5078774;28;24979;-46
2022/05/21 05:18:57;;;;;;;2.60;2.40;;;;;;;;;;5078776;28;24446;-46
2022/05/21 05:21:22;;;;;;;2.60;2.40;;;;;;;;;;5072730;28;25213;-46
2022/05/21 05:23:48;;;;;;;3.87;3.30;;;;;;;;;;5076778;28;24543;-46
2022/05/21 05:26:13;;;;;;;3.20;3.00;;;;;;;;;;5083195;28;24796;-45
2022/05/21 05:28:38;;;;;;;3.40;3.10;;;;;;;;;;5066344;28;24486;-46
2022/05/21 05:31:03;;;;;;;3.90;3.38;;;;;;;;;;5074996;28;24446;-45
2022/05/21 05:33:30;;;;;;;3.28;2.60;;;;;;;;;;5062438;28;24485;-46
2022/05/21 05:35:55;;;;;;;3.30;3.00;;;;;;;;;;5063547;28;24833;-46
2022/05/21 05:38:21;;;;;;;3.50;3.10;;;;;;;;;;5069419;28;24949;-47
2022/05/21 05:40:47;;;;;;;3.50;3.20;;;;;;;;;;5074383;28;24480;-46
2022/05/21 05:43:15;;;;;;;3.03;2.83;;;;;;;;;;5060000;28;24427;-45
2022/05/21 05:45:40;;;;;;;3.33;3.03;;;;;;;;;;5059351;28;24849;-45
2022/05/21 05:48:05;;;;;;;3.20;2.90;;;;;;;;;;5058477;28;24537;-45
2022/05/21 05:50:31;;;;;;;4.10;2.90;;;;;;;;;;5068269;28;24429;-46
2022/05/21 05:53:00;;;;;;;3.60;3.30;;;;;;;;;;5074526;28;24426;-46
2022/05/21 05:55:26;;;;;;;3.00;2.70;;;;;;;;;;5069879;28;24439;-46
2022/05/21 05:57:51;;;;;;;2.90;2.70;;;;;;;;;;5069406;28;24431;-46
2022/05/21 06:00:18;;;;;;;3.50;3.20;;;;;;;;;;5059969;28;24420;-46
2022/05/21 06:02:58;;;;;;;3.10;2.80;;;;;;;;;;5057235;28;24425;-46
2022/05/21 06:05:23;;;;;;;3.40;3.10;;;;;;;;;;5064517;28;24445;-45
2022/05/21 06:07:49;;;;;;;3.40;3.10;;;;;;;;;;5054343;28;24925;-46
2022/05/21 06:10:16;;;;;;;3.38;3.10;;;;;;;;;;5049739;28;24458;-46
2022/05/21 06:12:41;;;;;;;4.10;3.10;;;;;;;;;;5052621;28;24900;-46
2022/05/21 06:15:08;;;;;;;3.40;3.10;;;;;;;;;;5061034;28;25086;-46
2022/05/21 06:17:33;;;;;;;2.83;2.63;;;;;;;;;;5065711;28;24430;-47
2022/05/21 06:19:58;;;;;;;3.33;3.00;;;;;;;;;;5071471;28;24476;-47
2022/05/21 06:22:24;;;;;;;2.80;2.50;;;;;;;;;;5060318;28;24548;-46
2022/05/21 06:25:25;;;;;;;2.60;2.37;;;;;;;;;;5055451;28;25004;-46
2022/05/21 06:27:51;;;;;;;2.90;2.40;;;;;;;;;;4993595;28;24436;-46
2022/05/21 06:30:17;;;;;;;3.30;2.50;;;;;;;;;;5037877;28;25026;-47
2022/05/21 06:32:42;;;;;;;3.10;2.80;;;;;;;;;;5057746;28;24470;-46
2022/05/21 06:35:09;;;;;;;4.00;2.70;;;;;;;;;;5060637;28;24459;-46
2022/05/21 06:37:36;;;;;;;2.90;2.70;;;;;;;;;;5070393;28;24439;-46
2022/05/21 06:40:02;;;;;;;3.30;3.10;;;;;;;;;;5074005;28;24429;-46
2022/05/21 06:42:27;;;;;;;2.60;2.40;;;;;;;;;;5069575;28;24495;-46
2022/05/21 06:44:52;;;;;;;2.92;2.67;;;;;;;;;;5067099;28;24428;-46
2022/05/21 06:47:17;;;;;;;3.60;3.00;;;;;;;;;;5060976;28;24420;-47
2022/05/21 06:49:42;;;;;;;2.80;2.60;;;;;;;;;;5066754;28;24965;-47
2022/05/21 06:52:07;;;;;;;4.70;2.40;;;;;;;;;;5067335;28;24422;-46
2022/05/21 06:54:32;;;;;;;2.70;2.50;;;;;;;;;;5076649;28;24441;-46
2022/05/21 06:56:58;;;;;;;3.63;2.63;;;;;;;;;;5078585;28;24994;-46
2022/05/21 06:59:23;;;;;;;2.70;2.50;;;;;;;;;;5075694;28;24413;-47
2022/05/21 07:01:48;;;;;;;3.50;2.60;;;;;;;;;;5058423;28;24451;-46
2022/05/21 07:04:14;;;;;;;2.93;2.70;;;;;;;;;;5063572;28;24423;-46
2022/05/21 07:09:24;;;;;;;4.20;2.20;;;;;;;;;;5066276;28;24477;-47
2022/05/21 07:11:51;;;;;;;2.60;2.20;;;;;;;;;;5071189;28;24429;-47
2022/05/21 07:14:16;;;;;;;2.90;2.30;;;;;;;;;;5064282;28;24426;-46
2022/05/21 07:16:41;;;;;;;2.40;2.20;;;;;;;;;;5059495;28;24511;-47
2022/05/21 07:19:07;;;;;;;2.20;1.90;;;;;;;;;;5065546;28;24627;-47
2022/05/21 07:21:32;;;;;;;1.70;1.60;;;;;;;;;;5061144;28;25039;-47
2022/05/21 07:23:57;;;;;;;2.47;1.70;;;;;;;;;;5058894;28;24493;-47
2022/05/21 07:26:23;;;;;;;2.60;2.10;;;;;;;;;;5066542;28;24426;-47
2022/05/21 07:28:48;;;;;;;2.10;1.90;;;;;;;;;;5067079;28;24588;-47
2022/05/21 07:31:13;;;;;;;3.83;2.00;;;;;;;;;;5060570;28;24929;-45
2022/05/21 07:33:39;;;;;;;3.30;2.10;;;;;;;;;;5067165;28;24987;-45
2022/05/21 07:36:04;;;;;;;2.13;1.80;;;;;;;;;;5069521;28;24471;-45
2022/05/21 07:38:29;;;;;;;2.87;1.80;;;;;;;;;;5068445;28;24419;-47
2022/05/21 07:40:54;;;;;;;3.80;2.00;;;;;;;;;;5069466;28;24557;-47
2022/05/21 07:43:27;;;;;;;2.70;1.90;;;;;;;;;;5067979;28;24457;-47
2022/05/21 07:45:52;;;;;;;2.17;1.98;;;;;;;;;;5070210;28;24439;-47
2022/05/21 07:48:18;;;;;;;1.97;1.80;;;;;;;;;;5063284;28;24476;-47
2022/05/21 07:50:45;;;;;;;1.95;1.55;;;;;;;;;;5063318;28;24552;-48
2022/05/21 07:53:11;;;;;;;4.30;1.60;;;;;;;;;;5070725;28;24413;-47
2022/05/21 07:55:36;;;;;;;1.50;1.40;;;;;;;;;;5083192;28;24483;-47
2022/05/21 07:58:01;;;;;;;2.10;1.60;;;;;;;;;;5074932;28;24505;-47
2022/05/21 08:00:27;;;;;;;2.45;1.65;;;;;;;;;;5064704;28;24975;-46
2022/05/21 08:02:52;;;;;;;1.80;1.70;;;;;;;;;;5073327;28;24410;-47
2022/05/21 08:05:17;;;;;;;1.35;1.20;;;;;;;;;;5069592;28;24995;-47
2022/05/21 08:07:43;;;;;;;1.97;1.70;;;;;;;;;;5062246;28;24964;-45
2022/05/21 08:10:09;;;;;;;1.80;1.70;;;;;;;;;;5077082;28;24490;-45
2022/05/21 08:12:34;;;;;;;1.90;1.80;;;;;;;;;;5066835;28;25028;-47
2022/05/21 08:14:59;;;;;;;1.50;1.40;;;;;;;;;;5064049;28;25313;-47
2022/05/21 08:17:24;;;;;;;1.20;1.10;;;;;;;;;;5068250;28;24418;-47
2022/05/21 08:19:49;;;;;;;1.90;1.47;;;;;;;;;;5066344;28;24543;-45
2022/05/21 08:27:42;;;;;;;1.52;1.42;;;;;;;;;;5081904;28;24540;-47
2022/05/21 08:30:07;;;;;;;2.08;1.58;;;;;;;;;;5068261;28;24490;-45
2022/05/21 08:32:33;;;;;;;2.70;1.60;;;;;;;;;;5080678;28;24425;-45
2022/05/21 08:35:01;;;;;;;3.20;1.70;;;;;;;;;;5067154;28;24485;-45
2022/05/21 08:37:27;;;;;;;1.50;1.40;;;;;;;;;;5070499;28;24431;-44
2022/05/21 08:39:53;;;;;;;2.90;1.50;;;;;;;;;;5060454;28;24513;-45
2022/05/21 08:42:22;;;;;;;1.58;1.48;;;;;;;;;;5057563;28;25170;-45
2022/05/21 08:44:50;;;;;;;1.70;1.60;;;;;;;;;;5065282;28;24482;-45
2022/05/21 08:47:29;;;;;;;2.40;1.70;;;;;;;;;;5058518;28;24966;-45
2022/05/21 08:49:59;;;;;;;1.80;1.70;;;;;;;;;;5060249;28;24492;-46
2022/05/21 08:52:24;;;;;;;2.45;1.90;;;;;;;;;;5063099;28;25338;-46
2022/05/21 08:54:50;;;;;;;1.98;1.80;;;;;;;;;;5057227;28;25022;-46
2022/05/21 08:57:27;;;;;;;1.40;1.30;;;;;;;;;;5070848;28;24476;-45
2022/05/21 08:59:57;;;;;;;1.80;1.70;;;;;;;;;;5063651;28;24426;-45
2022/05/21 09:02:26;;;;;;;1.70;1.60;;;;;;;;;;5050737;28;24944;-46
2022/05/21 09:04:51;;;;;;;2.70;1.70;;;;;;;;;;5055941;28;24949;-46
2022/05/21 09:07:19;;;;;;;2.67;2.00;;;;;;;;;;5054073;28;24450;-46
2022/05/21 09:09:47;;;;;;;2.03;1.58;;;;;;;;;;5052266;28;25295;-46
2022/05/21 09:12:18;;;;;;;2.13;1.77;;;;;;;;;;5056113;28;24426;-46
2022/05/21 09:14:46;;;;;;;2.00;1.80;;;;;;;;;;5060502;28;24840;-46
2022/05/21 09:17:18;;;;;;;2.63;1.90;;;;;;;;;;5063333;28;25070;-46
2022/05/21 09:19:48;;;;;;;1.90;1.70;;;;;;;;;;5060179;28;24503;-46
2022/05/21 09:22:15;;;;;;;1.90;1.70;;;;;;;;;;5075811;28;24517;-45
2022/05/21 09:24:42;;;;;;;2.08;1.88;;;;;;;;;;5066083;28;24426;-46
2022/05/21 09:27:20;;;;;;;1.90;1.80;;;;;;;;;;5075224;28;24425;-47
2022/05/21 09:29:45;;;;;;;2.30;2.00;;;;;;;;;;5074411;28;24546;-46
2022/05/21 09:32:30;;;;;;;4.63;2.22;;;;;;;;;;5064776;28;24505;-47
2022/05/21 09:35:15;;;;;;;3.10;1.92;;;;;;;;;;5059899;28;24853;-47
2022/05/21 09:37:41;;;;;;;2.00;1.90;;;;;;;;;;5066333;28;24450;-47
2022/05/21 09:40:42;;;;;;;2.03;1.80;;;;;;;;;;5074683;28;24446;-47
2022/05/21 09:46:19;;;;;;;1.95;1.85;;;;;;;;;;5059505;28;24454;-46
2022/05/21 09:48:46;;;;;;;3.40;2.00;;;;;;;;;;5068108;28;24414;-47
2022/05/21 09:51:21;;;;;;;2.30;2.10;;;;;;;;;;5069068;28;24426;-45
2022/05/21 09:53:46;;;;;;;2.40;1.80;;;;;;;;;;5063253;28;24411;-46
2022/05/21 09:56:38;;;;;;;2.08;1.80;;;;;;;;;;5068434;28;26839;-47
2022/05/21 09:59:13;;;;;;;2.70;1.63;;;;;;;;;;5045997;28;24511;-46
2022/05/21 10:01:40;;;;;;;1.70;1.60;;;;;;;;;;5067691;28;24859;-46
2022/05/21 10:04:19;;;;;;;2.58;1.92;;;;;;;;;;5067572;28;24537;-46
2022/05/21 10:06:51;;;;;;;1.77;1.60;;;;;;;;;;5052240;28;24522;-46
2022/05/21 10:12:15;;;;;;;1.98;1.80;;;;;;;;;;5048562;28;24386;-46
2022/05/21 10:14:43;;;;;;;1.73;1.50;;;;;;;;;;5065402;28;24418;-46
2022/05/21 10:17:18;;;;;;;2.20;1.80;;;;;;;;;;5083720;28;24430;-46
2022/05/21 10:20:01;;;;;;;1.60;1.50;;;;;;;;;;5072119;28;24498;-46
2022/05/21 10:22:45;;;;;;;1.83;1.70;;;;;;;;;;5061577;28;24453;-46
2022/05/21 10:25:16;;;;;;;1.90;1.80;;;;;;;;;;5069946;28;24468;-46
2022/05/21 10:27:52;;;;;;;2.10;1.52;;;;;;;;;;5069786;28;24517;-46
2022/05/21 10:30:33;;;;;;;2.10;1.50;;;;;;;;;;5062277;28;24885;-46
2022/05/21 10:33:06;;;;;;;2.50;1.70;;;;;;;;;;5057256;28;24430;-46
2022/05/21 10:35:45;;;;;;;2.03;1.80;;;;;;;;;;5053995;28;26673;-46
2022/05/21 10:38:25;;;;;;;2.30;1.70;;;;;;;;;;5051045;28;24455;-46
2022/05/21 10:41:01;;;;;;;2.05;1.70;;;;;;;;;;5066153;28;24423;-46
2022/05/21 10:43:26;;;;;;;2.42;1.60;;;;;;;;;;5066296;28;24434;-47
2022/05/21 10:46:04;;;;;;;2.03;1.85;;;;;;;;;;5052033;28;24415;-46
2022/05/21 10:48:45;;;;;;;2.40;1.90;;;;;;;;;;5068299;28;24502;-46
2022/05/21 10:51:15;;;;;;;1.97;1.70;;;;;;;;;;5067988;28;24426;-47
2022/05/21 10:53:46;;;;;;;2.35;1.70;;;;;;;;;;5067698;28;24505;-45
2022/05/21 10:56:11;;;;;;;3.95;2.10;;;;;;;;;;5056663;28;24980;-48
2022/05/21 10:59:01;;;;;;;2.20;2.00;;;;;;;;;;5055619;28;25092;-46
2022/05/21 11:01:34;;;;;;;2.03;1.83;;;;;;;;;;5065856;28;24426;-45
2022/05/21 11:04:18;;;;;;;2.20;2.00;;;;;;;;;;5053778;28;24993;-45
2022/05/21 11:07:01;;;;;;;1.70;1.60;;;;;;;;;;5067449;28;24883;-46
2022/05/21 11:09:38;;;;;;;2.10;1.90;;;;;;;;;;5083971;28;24485;-46
2022/05/21 11:12:07;;;;;;;2.10;1.90;;;;;;;;;;5064270;28;24423;-46
2022/05/21 11:14:43;;;;;;;2.20;1.92;;;;;;;;;;5065393;28;24431;-46
2022/05/21 11:17:27;;;;;;;2.50;2.30;;;;;;;;;;5060757;28;24431;-46
2022/05/21 11:19:59;;;;;;;2.13;1.92;;;;;;;;;;5062562;28;24423;-45
2022/05/21 11:22:28;;;;;;;1.95;1.80;;;;;;;;;;5056053;28;24980;-46
2022/05/21 11:25:03;;;;;;;2.33;2.05;;;;;;;;;;5061299;28;24860;-45
2022/05/21 11:27:39;;;;;;;3.33;1.90;;;;;;;;;;5062421;28;24537;-45
2022/05/21 11:30:08;;;;;;;1.70;1.60;;;;;;;;;;5062384;28;24585;-45
2022/05/21 11:38:13;;;;;;;1.70;1.60;;;;;;;;;;5060668;28;24430;-45
2022/05/21 11:40:51;;;;;;;4.30;1.50;;;;;;;;;;5052561;28;21355;-46
2022/05/21 11:43:17;;;;;;;1.52;1.30;;;;;;;;;;5061375;28;24406;-45
2022/05/21 11:45:57;;;;;;;2.90;1.60;;;;;;;;;;5061042;28;25149;-45
2022/05/21 11:48:25;;;;;;;2.30;1.60;;;;;;;;;;5061876;28;24430;-46
2022/05/21 11:51:10;;;;;;;1.92;1.60;;;;;;;;;;5057247;28;24853;-45
2022/05/21 11:53:41;;;;;;;2.70;1.60;;;;;;;;;;5053285;28;24424;-46
2022/05/21 11:56:08;;;;;;;2.30;1.52;;;;;;;;;;5069953;28;24442;-46
2022/05/21 11:58:53;;;;;;;1.70;1.60;;;;;;;;;;5059913;28;24431;-46
2022/05/21 12:01:38;;;;;;;1.98;1.80;;;;;;;;;;5041153;28;24435;-47
2022/05/21 12:04:04;;;;;;;1.50;1.40;;;;;;;;;;5073036;28;24437;-46
2022/05/21 12:06:31;;;;;;;1.38;1.35;;;;;;;;;;5051808;28;24976;-47
2022/05/21 12:09:15;;;;;;;1.80;1.70;;;;;;;;;;5055352;28;24457;-46
2022/05/21 12:11:41;;;;;;;2.08;1.60;;;;;;;;;;5050438;28;24439;-46
2022/05/21 12:14:19;;;;;;;3.63;1.80;;;;;;;;;;5060576;28;24451;-46
2022/05/21 12:16:46;;;;;;;1.90;1.50;;;;;;;;;;5058028;28;24523;-47
2022/05/21 12:19:31;;;;;;;1.73;1.63;;;;;;;;;;5055046;28;24415;-47
2022/05/21 12:21:58;;;;;;;2.67;2.20;;;;;;;;;;5051170;28;24505;-47
2022/05/21 12:24:34;;;;;;;2.15;1.95;;;;;;;;;;5063330;28;24425;-46
2022/05/21 12:27:15;;;;;;;1.92;1.80;;;;;;;;;;5065885;28;24430;-47
2022/05/21 12:29:43;;;;;;;2.60;2.40;;;;;;;;;;5042366;28;24428;-47
2022/05/21 12:32:12;;;;;;;2.50;2.30;;;;;;;;;;5059913;28;24871;-47
2022/05/21 12:35:02;;;;;;;2.83;2.53;;;;;;;;;;5057342;28;24469;-47
2022/05/21 12:37:31;;;;;;;4.60;2.40;;;;;;;;;;5075897;28;24478;-46
2022/05/21 12:40:15;;;;;;;2.55;2.35;;;;;;;;;;5063570;28;24429;-47
2022/05/21 12:42:43;;;;;;;2.92;2.20;;;;;;;;;;5056326;28;24415;-47
2022/05/21 12:45:09;;;;;;;2.77;2.00;;;;;;;;;;5056765;28;24422;-47
2022/05/21 12:47:39;;;;;;;2.00;1.60;;;;;;;;;;5061789;28;25187;-46
2022/05/21 12:50:12;;;;;;;1.60;1.48;;;;;;;;;;5056391;28;24502;-47
2022/05/21 12:52:43;;;;;;;2.75;1.80;;;;;;;;;;5055979;28;24502;-47
2022/05/21 12:55:12;;;;;;;2.45;1.60;;;;;;;;;;5048594;28;24991;-47
2022/05/21 12:57:37;;;;;;;3.50;2.90;;;;;;;;;;5054702;28;24438;-46
2022/05/21 13:00:04;;;;;;;3.20;2.33;;;;;;;;;;5064178;28;24565;-46
2022/05/21 13:02:38;;;;;;;2.40;2.10;;;;;;;;;;5057636;28;24451;-47
2022/05/21 13:05:03;;;;;;;2.50;1.70;;;;;;;;;;5059592;28;24445;-46
2022/05/21 13:07:36;;;;;;;1.60;1.50;;;;;;;;;;5057618;28;24439;-47
2022/05/21 13:10:12;;;;;;;3.78;1.70;;;;;;;;;;5068570;28;24407;-47
2022/05/21 13:12:42;;;;;;;1.50;1.40;;;;;;;;;;5067008;28;24454;-47
2022/05/21 13:15:11;;;;;;;1.52;1.40;;;;;;;;;;5078560;28;24458;-46
2022/05/21 13:17:46;;;;;;;1.60;1.40;;;;;;;;;;5060297;28;24505;-47
2022/05/21 13:20:22;;;;;;;2.58;1.58;;;;;;;;;;5085967;28;24448;-47
2022/05/21 13:22:53;;;;;;;2.53;1.48;;;;;;;;;;5061710;28;24415;-47
2022/05/21 13:25:19;;;;;;;1.50;1.40;;;;;;;;;;5071801;28;24406;-47
2022/05/21 13:27:48;;;;;;;1.30;1.20;;;;;;;;;;5069315;28;24403;-47
2022/05/21 13:30:15;;;;;;;2.70;1.60;;;;;;;;;;5072652;28;24935;-47
2022/05/21 13:32:40;;;;;;;2.53;1.70;;;;;;;;;;5066467;28;24415;-46
2022/05/21 13:35:26;;;;;;;1.77;1.67;;;;;;;;;;5067506;28;24400;-47
2022/05/21 13:37:52;;;;;;;2.87;1.43;;;;;;;;;;5046174;28;24809;-46
2022/05/21 13:40:19;;;;;;;2.20;1.70;;;;;;;;;;5068782;28;24980;-47
2022/05/21 13:42:46;;;;;;;2.37;1.70;;;;;;;;;;5070134;28;24420;-47
2022/05/21 13:45:14;;;;;;;2.50;1.80;;;;;;;;;;5068664;28;24489;-46
2022/05/21 13:47:43;;;;;;;3.38;2.00;;;;;;;;;;5068840;28;24461;-46
2022/05/21 13:50:09;;;;;;;1.80;1.70;;;;;;;;;;5067975;28;24395;-47
2022/05/21 13:52:45;;;;;;;2.30;1.80;;;;;;;;;;5073513;28;24437;-45
2022/05/21 13:55:12;;;;;;;2.50;1.50;;;;;;;;;;5068778;28;24488;-46
2022/05/21 13:57:37;;;;;;;2.10;1.40;;;;;;;;;;5068501;28;24434;-46
2022/05/21 14:00:15;;;;;;;1.80;1.60;;;;;;;;;;5067644;28;24778;-46
2022/05/21 14:02:42;;;;;;;2.05;1.55;;;;;;;;;;5059510;28;24456;-46
2022/05/21 14:05:20;;;;;;;2.92;1.90;;;;;;;;;;5072945;28;24423;-46
2022/05/21 14:07:49;;;;;;;2.50;1.80;;;;;;;;;;5074615;28;24488;-47
2022/05/21 14:10:14;;;;;;;2.70;1.80;;;;;;;;;;5069128;28;24394;-46
2022/05/21 14:12:48;;;;;;;3.00;2.00;;;;;;;;;;5068409;28;24411;-47
2022/05/21 14:15:19;;;;;;;2.10;1.90;;;;;;;;;;5088803;28;24398;-46
2022/05/21 14:17:53;;;;;;;3.60;2.40;;;;;;;;;;5081310;28;24418;-47
2022/05/21 14:20:18;;;;;;;3.45;2.38;;;;;;;;;;5064263;28;24795;-46
2022/05/21 14:22:44;;;;;;;3.58;2.17;;;;;;;;;;5065016;28;24422;-46
2022/05/21 14:25:23;;;;;;;2.03;1.70;;;;;;;;;;5054850;28;24411;-46
2022/05/21 14:27:56;;;;;;;2.30;1.80;;;;;;;;;;5053875;28;24994;-47
2022/05/21 14:30:28;;;;;;;2.13;1.70;;;;;;;;;;5065299;28;24435;-46
2022/05/21 14:32:54;;;;;;;2.22;1.88;;;;;;;;;;5055859;28;24418;-47
2022/05/21 14:35:19;;;;;;;2.60;1.90;;;;;;;;;;5055768;28;24993;-47
2022/05/21 14:37:46;;;;;;;2.90;2.05;;;;;;;;;;5064586;28;24477;-46
2022/05/21 14:40:11;;;;;;;2.05;1.73;;;;;;;;;;5062426;28;24440;-46
2022/05/21 14:42:37;;;;;;;2.80;1.80;;;;;;;;;;5058090;28;24449;-46
2022/05/21 14:45:09;;;;;;;2.10;2.00;;;;;;;;;;5058960;28;24792;-46
2022/05/21 14:47:52;;;;;;;2.60;1.80;;;;;;;;;;5076504;28;24414;-46
2022/05/21 14:53:14;;;;;;;2.70;1.90;;;;;;;;;;5061660;28;24875;-46
2022/05/21 14:55:39;;;;;;;3.13;2.00;;;;;;;;;;5066306;28;24434;-46
2022/05/21 14:58:05;;;;;;;3.93;2.20;;;;;;;;;;5064414;28;25233;-46
2022/05/21 15:00:30;;;;;;;3.42;1.70;;;;;;;;;;5056841;28;24983;-46
2022/05/21 15:02:55;;;;;;;3.10;2.00;;;;;;;;;;5077204;28;25005;-46
2022/05/21 15:05:21;;;;;;;2.10;1.70;;;;;;;;;;5069687;28;24424;-46
2022/05/21 15:07:47;;;;;;;3.78;2.20;;;;;;;;;;5068271;28;24398;-46
2022/05/21 15:10:17;;;;;;;2.90;1.90;;;;;;;;;;5061949;28;24845;-45
2022/05/21 15:12:42;;;;;;;3.00;1.90;;;;;;;;;;5068143;28;24383;-46
2022/05/21 15:15:09;;;;;;;3.38;2.00;;;;;;;;;;5065359;28;24430;-46
2022/05/21 15:17:34;;;;;;;2.70;2.20;;;;;;;;;;5066634;28;24526;-46
2022/05/21 15:19:59;;;;;;;1.90;1.70;;;;;;;;;;5059293;28;24506;-46